createdAt,value
2023-03-10T00:01:14.632Z,1.87
2023-03-10T00:03:41.530Z,1.67
2023-03-10T00:06:09.923Z,1.43
2023-03-10T00:08:36.859Z,1.13
2023-03-10T00:11:03.705Z,1.87
2023-03-10T00:13:30.459Z,3.90
2023-03-10T00:15:57.624Z,3.53
2023-03-10T00:18:24.361Z,2.30
2023-03-10T00:20:52.689Z,1.20
2023-03-10T00:23:20.261Z,1.93
2023-03-10T00:25:57.718Z,1.87
2023-03-10T00:28:25.899Z,1.33
2023-03-10T00:31:06.132Z,3.47
2023-03-10T00:33:35.024Z,0.93
2023-03-10T00:36:11.285Z,3.30
2023-03-10T00:38:38.816Z,3.50
2023-03-10T00:41:08.768Z,1.23
2023-03-10T00:43:36.477Z,4.00
2023-03-10T00:46:04.177Z,1.37
2023-03-10T00:48:32.189Z,1.13
2023-03-10T00:50:59.294Z,2.40
2023-03-10T00:53:26.679Z,1.00
2023-03-10T00:56:10.050Z,1.10
2023-03-10T00:58:36.845Z,1.50
2023-03-10T01:01:05.086Z,0.90
2023-03-10T01:03:32.453Z,0.67
2023-03-10T01:05:59.195Z,1.53
2023-03-10T01:08:26.000Z,1.57
2023-03-10T01:10:52.819Z,0.70
2023-03-10T01:13:19.960Z,1.87
2023-03-10T01:15:50.841Z,3.27
2023-03-10T01:18:20.069Z,1.10
2023-03-10T01:20:46.986Z,1.77
2023-03-10T01:23:22.560Z,1.60
2023-03-10T01:25:50.000Z,1.63
2023-03-10T01:28:18.466Z,1.40
2023-03-10T01:30:45.760Z,2.70
2023-03-10T01:33:13.251Z,1.60
2023-03-10T01:35:40.882Z,0.97
2023-03-10T01:38:08.688Z,2.57
2023-03-10T01:40:37.358Z,1.87
2023-03-10T01:43:22.996Z,2.13
2023-03-10T01:45:52.727Z,1.77
2023-03-10T01:48:22.237Z,1.47
2023-03-10T01:50:53.707Z,3.03
2023-03-10T01:53:22.317Z,1.17
2023-03-10T01:55:54.660Z,0.57
2023-03-10T01:58:24.773Z,1.77
2023-03-10T02:00:53.896Z,1.47
2023-03-10T02:03:28.826Z,3.13
2023-03-10T02:05:59.581Z,4.13
2023-03-10T02:08:31.511Z,4.53
2023-03-10T02:10:59.134Z,2.03
2023-03-10T02:13:25.825Z,1.30
2023-03-10T02:15:53.288Z,1.50
2023-03-10T02:18:21.420Z,2.83
2023-03-10T02:21:06.913Z,3.07
2023-03-10T02:24:01.635Z,1.00
2023-03-10T02:26:55.548Z,4.37
2023-03-10T02:29:59.210Z,2.27
2023-03-10T02:32:34.463Z,2.77
2023-03-10T02:35:01.369Z,1.53
2023-03-10T02:37:32.044Z,2.30
2023-03-10T02:39:59.404Z,2.60
2023-03-10T02:42:33.927Z,1.33
2023-03-10T02:45:02.537Z,2.33
2023-03-10T02:47:29.383Z,1.80
2023-03-10T02:49:56.107Z,1.57
2023-03-10T02:52:35.175Z,3.27
2023-03-10T02:55:01.877Z,1.40
2023-03-10T02:57:29.034Z,1.67
2023-03-10T02:59:55.837Z,2.50
2023-03-10T03:02:22.541Z,3.23
2023-03-10T03:04:49.209Z,2.17
2023-03-10T03:07:15.889Z,1.33
2023-03-10T03:09:42.738Z,2.77
2023-03-10T03:12:09.910Z,1.87
2023-03-10T03:14:37.034Z,3.50
2023-03-10T03:17:05.803Z,3.20
2023-03-10T03:19:32.778Z,1.20
2023-03-10T03:21:59.495Z,3.87
2023-03-10T03:24:28.398Z,2.73
2023-03-10T03:26:55.156Z,3.00
2023-03-10T03:29:25.328Z,2.90
2023-03-10T03:31:52.765Z,2.23
2023-03-10T03:34:23.782Z,1.93
2023-03-10T03:36:53.516Z,3.13
2023-03-10T03:39:25.886Z,4.87
2023-03-10T03:41:57.391Z,4.87
2023-03-10T03:44:27.138Z,3.43
2023-03-10T03:46:55.434Z,3.60
2023-03-10T03:49:23.301Z,4.07
2023-03-10T03:51:49.998Z,4.50
2023-03-10T03:54:16.709Z,5.93
2023-03-10T03:56:43.732Z,4.57
2023-03-10T03:59:12.931Z,2.40
2023-03-10T04:01:40.283Z,3.43
2023-03-10T04:04:07.104Z,5.10
2023-03-10T04:06:34.692Z,6.70
2023-03-10T04:09:01.717Z,4.90
2023-03-10T04:11:29.694Z,4.30
2023-03-10T04:13:56.438Z,3.40
2023-03-10T04:16:23.197Z,5.80
2023-03-10T04:18:50.121Z,6.93
2023-03-10T04:21:17.592Z,4.47
2023-03-10T04:23:46.421Z,4.73
2023-03-10T04:26:16.657Z,2.97
2023-03-10T04:28:44.268Z,5.80
2023-03-10T04:31:17.249Z,3.83
2023-03-10T04:33:46.050Z,3.60
2023-03-10T04:36:13.809Z,3.43
2023-03-10T04:38:41.561Z,5.90
2023-03-10T04:41:09.409Z,4.07
2023-03-10T04:43:42.687Z,6.80
2023-03-10T04:46:10.196Z,2.70
2023-03-10T04:48:38.232Z,2.90
2023-03-10T04:51:08.607Z,3.00
2023-03-10T04:53:40.423Z,3.73
2023-03-10T04:56:08.252Z,5.77
2023-03-10T04:58:37.037Z,5.47
2023-03-10T05:01:13.054Z,4.40
2023-03-10T05:03:45.309Z,4.27
2023-03-10T05:06:19.526Z,4.40
2023-03-10T05:08:53.039Z,3.87
2023-03-10T05:11:24.001Z,5.33
2023-03-10T05:13:51.125Z,4.63
2023-03-10T05:16:20.349Z,6.57
2023-03-10T05:18:48.418Z,5.00
2023-03-10T05:21:21.744Z,5.87
2023-03-10T05:23:49.845Z,4.83
2023-03-10T05:26:17.740Z,6.50
2023-03-10T05:28:44.670Z,4.37
2023-03-10T05:31:16.415Z,9.87
2023-03-10T05:33:45.587Z,7.50
2023-03-10T05:36:14.671Z,5.03
2023-03-10T05:38:43.541Z,9.23
2023-03-10T05:41:13.197Z,4.30
2023-03-10T05:43:41.549Z,5.40
2023-03-10T05:46:09.653Z,5.00
2023-03-10T05:48:43.354Z,4.40
2023-03-10T05:51:12.118Z,5.43
2023-03-10T05:53:40.563Z,4.63
2023-03-10T05:56:17.008Z,4.77
2023-03-10T05:58:46.865Z,10.10
2023-03-10T06:01:16.925Z,6.43
2023-03-10T06:03:45.068Z,4.97
2023-03-10T06:06:12.310Z,6.17
2023-03-10T06:08:39.306Z,3.40
2023-03-10T06:11:06.318Z,7.53
2023-03-10T06:13:33.053Z,5.47
2023-03-10T06:16:02.403Z,6.47
2023-03-10T06:18:29.756Z,6.60
2023-03-10T06:20:56.579Z,6.27
2023-03-10T06:23:24.694Z,5.03
2023-03-10T06:26:22.652Z,7.43
2023-03-10T06:28:49.332Z,6.30
2023-03-10T06:31:19.650Z,6.43
2023-03-10T06:33:46.571Z,4.50
2023-03-10T06:36:13.928Z,4.47
2023-03-10T06:38:41.289Z,6.27
2023-03-10T06:41:08.808Z,5.60
2023-03-10T06:43:36.121Z,8.43
2023-03-10T06:46:04.610Z,6.53
2023-03-10T06:48:31.608Z,5.87
2023-03-10T06:50:58.346Z,3.00
2023-03-10T06:53:26.936Z,4.53
2023-03-10T06:56:01.981Z,6.30
2023-03-10T06:58:30.156Z,5.00
2023-03-10T07:00:56.974Z,2.23
2023-03-10T07:03:26.107Z,3.13
2023-03-10T07:05:53.314Z,3.73
2023-03-10T07:08:20.075Z,1.33
2023-03-10T07:10:46.780Z,2.47
2023-03-10T07:13:17.406Z,1.87
2023-03-10T07:15:45.525Z,2.23
2023-03-10T07:18:13.325Z,1.90
2023-03-10T07:20:42.255Z,2.50
2023-03-10T07:23:08.948Z,1.60
2023-03-10T07:25:36.688Z,2.33
2023-03-10T07:28:04.384Z,1.30
2023-03-10T07:30:32.221Z,2.27
2023-03-10T07:32:59.043Z,2.50
2023-03-10T07:35:25.800Z,0.90
2023-03-10T07:37:52.514Z,1.70
2023-03-10T07:40:24.635Z,1.40
2023-03-10T07:42:54.423Z,1.50
2023-03-10T07:45:22.406Z,2.00
2023-03-10T07:47:50.884Z,2.03
2023-03-10T07:50:18.082Z,1.83
2023-03-10T07:52:44.830Z,1.23
2023-03-10T07:55:12.214Z,0.90
2023-03-10T07:57:38.958Z,2.43
2023-03-10T08:00:06.735Z,2.60
2023-03-10T08:02:39.482Z,3.47
2023-03-10T08:05:07.071Z,3.53
2023-03-10T08:07:34.352Z,3.53
2023-03-10T08:10:01.238Z,8.33
2023-03-10T08:12:27.888Z,5.33
2023-03-10T08:14:54.556Z,3.37
2023-03-10T08:17:21.252Z,6.33
2023-03-10T08:19:48.135Z,6.87
2023-03-10T08:22:16.302Z,2.97
2023-03-10T08:24:42.991Z,6.13
2023-03-10T08:27:09.894Z,5.17
2023-03-10T08:29:36.795Z,7.97
2023-03-10T08:32:03.594Z,3.30
2023-03-10T08:34:35.074Z,5.10
2023-03-10T08:37:01.863Z,8.33
2023-03-10T08:39:29.246Z,5.23
2023-03-10T08:41:56.102Z,5.03
2023-03-10T08:44:22.992Z,6.53
2023-03-10T08:46:50.717Z,5.30
2023-03-10T08:49:19.764Z,7.23
2023-03-10T08:51:46.877Z,8.63
2023-03-10T08:54:16.107Z,6.40
2023-03-10T08:56:42.765Z,5.87
2023-03-10T08:59:09.850Z,5.20
2023-03-10T09:01:38.181Z,7.20
2023-03-10T09:04:07.072Z,3.93
2023-03-10T09:06:34.719Z,7.50
2023-03-10T09:09:01.894Z,6.20
2023-03-10T09:11:34.194Z,3.60
2023-03-10T09:14:02.237Z,6.13
2023-03-10T09:16:29.967Z,4.33
2023-03-10T09:18:58.072Z,3.57
2023-03-10T09:21:25.474Z,5.47
2023-03-10T09:23:53.113Z,5.50
2023-03-10T09:26:21.433Z,4.67
2023-03-10T09:28:50.867Z,3.30
2023-03-10T09:31:21.438Z,3.13
2023-03-10T09:33:48.801Z,4.53
2023-03-10T09:36:17.215Z,4.27
2023-03-10T09:38:43.953Z,3.97
2023-03-10T09:41:50.277Z,3.67
2023-03-10T09:44:32.037Z,0.67
2023-03-10T09:47:13.685Z,3.17
2023-03-10T09:50:03.383Z,1.70
2023-03-10T09:52:46.504Z,1.73
2023-03-10T09:55:23.140Z,0.40
2023-03-10T09:57:52.403Z,0.60
2023-03-10T10:00:29.089Z,2.53
2023-03-10T10:03:03.293Z,1.60
2023-03-10T10:05:33.642Z,2.23
2023-03-10T10:08:05.977Z,1.97
2023-03-10T10:10:36.557Z,3.20
2023-03-10T10:13:13.749Z,2.17
2023-03-10T10:15:45.331Z,3.33
2023-03-10T10:18:19.688Z,2.33
2023-03-10T10:20:58.527Z,3.53
2023-03-10T10:23:40.627Z,2.67
2023-03-10T10:26:16.653Z,4.70
2023-03-10T10:28:48.247Z,1.50
2023-03-10T10:31:21.470Z,3.00
2023-03-10T10:33:53.419Z,2.43
2023-03-10T10:36:20.766Z,2.03
2023-03-10T10:38:52.876Z,2.73
2023-03-10T10:41:24.086Z,2.30
2023-03-10T10:43:50.850Z,2.50
2023-03-10T10:46:25.981Z,1.73
2023-03-10T10:49:27.807Z,5.13
2023-03-10T10:52:01.601Z,3.17
2023-03-10T10:54:35.107Z,1.57
2023-03-10T10:57:02.646Z,2.57
2023-03-10T10:59:34.912Z,2.23
2023-03-10T11:02:03.861Z,3.33
2023-03-10T11:04:43.838Z,3.03
2023-03-10T11:07:25.082Z,2.67
2023-03-10T11:09:51.962Z,2.07
2023-03-10T11:12:24.328Z,1.97
2023-03-10T11:15:03.218Z,0.90
2023-03-10T11:17:57.602Z,1.93
2023-03-10T11:20:27.203Z,1.10
2023-03-10T11:23:12.494Z,2.30
2023-03-10T11:25:47.506Z,2.17
2023-03-10T11:28:31.210Z,1.97
2023-03-10T11:31:25.278Z,1.83
2023-03-10T11:34:13.622Z,2.33
2023-03-10T11:37:05.289Z,0.67
2023-03-10T11:39:43.147Z,0.63
2023-03-10T11:42:25.193Z,1.70
2023-03-10T11:45:04.662Z,0.63
2023-03-10T11:48:13.537Z,1.53
2023-03-10T11:50:59.042Z,2.63
2023-03-10T11:53:38.934Z,2.47
2023-03-10T11:56:08.920Z,2.70
2023-03-10T11:59:06.214Z,0.90
2023-03-10T12:01:51.555Z,1.27
2023-03-10T12:04:30.659Z,1.57
2023-03-10T12:07:07.645Z,0.80
2023-03-10T12:09:46.390Z,2.57
2023-03-10T12:12:18.702Z,2.23
2023-03-10T12:14:46.628Z,1.63
2023-03-10T12:17:15.224Z,0.90
2023-03-10T12:20:12.999Z,1.73
2023-03-10T12:22:41.913Z,1.17
2023-03-10T12:25:30.693Z,0.40
2023-03-10T12:28:16.290Z,1.50
2023-03-10T12:30:58.394Z,1.83
2023-03-10T12:33:34.355Z,1.87
2023-03-10T12:36:15.774Z,2.70
2023-03-10T12:38:44.578Z,0.90
2023-03-10T12:41:12.759Z,0.60
2023-03-10T12:43:48.557Z,0.63
2023-03-10T12:46:29.239Z,2.83
2023-03-10T12:49:16.157Z,3.00
2023-03-10T12:51:49.751Z,1.70
2023-03-10T12:54:33.793Z,2.03
2023-03-10T12:57:07.747Z,4.33
2023-03-10T13:00:05.059Z,1.13
2023-03-10T13:02:56.385Z,0.40
2023-03-10T13:05:27.664Z,0.43
2023-03-10T13:07:58.170Z,0.97
2023-03-10T13:10:27.133Z,0.80
2023-03-10T13:12:58.624Z,0.57
2023-03-10T13:15:28.847Z,2.27
2023-03-10T13:18:09.646Z,0.50
2023-03-10T13:20:38.107Z,2.10
2023-03-10T13:23:05.047Z,0.20
2023-03-10T13:25:36.555Z,0.40
2023-03-10T13:28:11.624Z,0.40
2023-03-10T13:30:38.303Z,0.30
2023-03-10T13:33:13.283Z,1.23
2023-03-10T13:35:41.881Z,0.83
2023-03-10T13:38:18.900Z,0.97
2023-03-10T13:40:48.171Z,0.50
2023-03-10T13:43:39.736Z,0.63
2023-03-10T13:46:14.982Z,0.40
2023-03-10T13:48:42.465Z,0.60
2023-03-10T13:51:19.822Z,0.20
2023-03-10T13:53:52.519Z,0.30
2023-03-10T13:56:40.666Z,0.40
2023-03-10T13:59:15.374Z,0.50
2023-03-10T14:01:48.021Z,0.40
2023-03-10T14:04:18.720Z,0.60
2023-03-10T14:06:45.948Z,1.63
2023-03-10T14:09:21.356Z,0.60
2023-03-10T14:11:50.236Z,0.87
2023-03-10T14:14:34.677Z,0.40
2023-03-10T14:17:04.155Z,0.30
2023-03-10T14:19:42.891Z,0.70
2023-03-10T14:22:40.515Z,0.60
2023-03-10T14:25:19.644Z,0.50
2023-03-10T14:27:53.719Z,0.33
2023-03-10T14:30:32.459Z,0.40
2023-03-10T14:33:00.659Z,1.23
2023-03-10T14:35:29.871Z,0.40
2023-03-10T14:37:56.661Z,0.30
2023-03-10T14:40:25.378Z,1.23
2023-03-10T14:42:53.970Z,0.90
2023-03-10T14:45:32.778Z,0.40
2023-03-10T14:48:02.257Z,0.60
2023-03-10T14:50:29.652Z,1.47
2023-03-10T14:52:56.366Z,0.90
2023-03-10T14:55:23.423Z,0.87
2023-03-10T14:57:56.602Z,0.83
2023-03-10T15:00:23.601Z,1.47
2023-03-10T15:02:50.249Z,0.60
2023-03-10T15:05:19.474Z,1.37
2023-03-10T15:07:48.638Z,1.57
2023-03-10T15:10:17.317Z,1.27
2023-03-10T15:12:44.343Z,1.60
2023-03-10T15:15:20.539Z,1.90
2023-03-10T15:17:47.413Z,0.73
2023-03-10T15:20:23.228Z,2.10
2023-03-10T15:22:51.521Z,2.20
2023-03-10T15:25:21.174Z,2.60
2023-03-10T15:27:49.540Z,2.27
2023-03-10T15:30:26.285Z,2.00
2023-03-10T15:32:53.497Z,3.70
2023-03-10T15:35:21.726Z,1.20
2023-03-10T15:37:49.553Z,2.67
2023-03-10T15:40:22.472Z,5.47
2023-03-10T15:42:49.793Z,4.00
2023-03-10T15:45:18.342Z,3.03
2023-03-10T15:47:46.122Z,1.87
2023-03-10T15:50:14.169Z,3.90
2023-03-10T15:52:46.319Z,4.23
2023-03-10T15:55:14.912Z,2.53
2023-03-10T15:57:41.941Z,2.63
2023-03-10T16:00:09.561Z,4.77
2023-03-10T16:02:36.477Z,4.43
2023-03-10T16:05:05.165Z,5.37
2023-03-10T16:07:33.268Z,3.67
2023-03-10T16:09:59.963Z,4.50
2023-03-10T16:12:27.440Z,8.33
2023-03-10T16:14:55.349Z,7.97
2023-03-10T16:17:22.916Z,9.20
2023-03-10T16:19:49.940Z,4.50
2023-03-10T16:22:16.868Z,3.23
2023-03-10T16:24:43.595Z,7.17
2023-03-10T16:27:10.832Z,5.63
2023-03-10T16:29:40.116Z,2.97
2023-03-10T16:32:09.989Z,4.00
2023-03-10T16:34:36.777Z,5.00
2023-03-10T16:37:03.844Z,3.50
2023-03-10T16:39:31.292Z,6.50
2023-03-10T16:41:58.744Z,6.13
2023-03-10T16:44:25.506Z,2.07
2023-03-10T16:46:52.604Z,5.43
2023-03-10T16:49:19.512Z,5.13
2023-03-10T16:51:47.349Z,2.40
2023-03-10T16:54:20.485Z,2.57
2023-03-10T16:56:52.686Z,2.83
2023-03-10T16:59:22.139Z,5.43
2023-03-10T17:01:49.859Z,2.80
2023-03-10T17:04:16.985Z,2.30
2023-03-10T17:06:44.653Z,3.40
2023-03-10T17:09:13.234Z,1.73
2023-03-10T17:11:43.853Z,1.40
2023-03-10T17:14:14.144Z,1.70
2023-03-10T17:16:42.193Z,4.27
2023-03-10T17:19:19.668Z,1.70
2023-03-10T17:21:49.192Z,3.00
2023-03-10T17:24:17.769Z,2.37
2023-03-10T17:26:45.353Z,1.23
2023-03-10T17:29:12.104Z,1.70
2023-03-10T17:31:38.935Z,1.73
2023-03-10T17:34:10.655Z,1.53
2023-03-10T17:36:37.369Z,1.70
2023-03-10T17:39:05.418Z,1.73
2023-03-10T17:41:33.979Z,6.43
2023-03-10T17:44:00.731Z,1.30
2023-03-10T17:46:29.681Z,0.83
2023-03-10T17:48:57.086Z,0.80
2023-03-10T17:51:26.314Z,3.53
2023-03-10T17:53:56.063Z,1.03
2023-03-10T17:56:22.987Z,0.70
2023-03-10T17:58:52.618Z,1.10
2023-03-10T18:01:22.854Z,1.60
2023-03-10T18:03:49.536Z,1.70
2023-03-10T18:06:24.789Z,0.80
2023-03-10T18:08:53.711Z,0.90
2023-03-10T18:11:22.416Z,1.87
2023-03-10T18:13:49.162Z,0.53
2023-03-10T18:16:27.598Z,1.00
2023-03-10T18:18:56.053Z,1.80
2023-03-10T18:21:24.084Z,0.83
2023-03-10T18:23:52.204Z,0.77
2023-03-10T18:26:22.213Z,1.90
2023-03-10T18:28:48.905Z,0.97
2023-03-10T18:31:25.584Z,0.67
2023-03-10T18:33:52.811Z,0.73
2023-03-10T18:36:20.884Z,0.90
2023-03-10T18:38:48.147Z,0.50
2023-03-10T18:41:18.505Z,0.60
2023-03-10T18:43:45.479Z,0.30
2023-03-10T18:46:12.243Z,0.73
2023-03-10T18:48:39.027Z,1.80
2023-03-10T18:51:06.125Z,0.60
2023-03-10T18:53:32.853Z,0.40
2023-03-10T18:55:59.865Z,0.97
2023-03-10T18:58:26.600Z,0.60
2023-03-10T19:00:53.295Z,0.63
2023-03-10T19:03:20.113Z,2.37
2023-03-10T19:05:51.484Z,0.77
2023-03-10T19:08:18.837Z,1.37
2023-03-10T19:10:45.599Z,0.70
2023-03-10T19:13:12.259Z,2.93
2023-03-10T19:15:38.883Z,0.80
2023-03-10T19:18:05.634Z,0.70
2023-03-10T19:20:32.319Z,1.20
2023-03-10T19:22:58.977Z,1.50
2023-03-10T19:25:25.669Z,2.07
2023-03-10T19:27:52.384Z,1.00
2023-03-10T19:30:20.210Z,1.33
2023-03-10T19:32:47.818Z,3.13
2023-03-10T19:35:15.816Z,1.03
2023-03-10T19:37:46.935Z,1.70
2023-03-10T19:40:16.203Z,1.57
2023-03-10T19:42:43.971Z,1.13
2023-03-10T19:45:12.790Z,0.93
2023-03-10T19:47:41.401Z,0.90
2023-03-10T19:50:11.105Z,0.80
2023-03-10T19:52:42.040Z,1.07
2023-03-10T19:55:10.156Z,0.93
2023-03-10T19:57:37.092Z,0.87
2023-03-10T20:00:09.922Z,1.03
2023-03-10T20:02:36.662Z,1.10
2023-03-10T20:05:03.338Z,1.83
2023-03-10T20:07:30.043Z,0.90
2023-03-10T20:09:56.736Z,2.17
2023-03-10T20:12:23.378Z,1.00
2023-03-10T20:14:50.138Z,0.97
2023-03-10T20:17:19.209Z,1.50
2023-03-10T20:19:46.048Z,2.07
2023-03-10T20:22:15.093Z,1.10
2023-03-10T20:24:41.765Z,8.70
2023-03-10T20:27:08.566Z,0.50
2023-03-10T20:29:35.268Z,0.70
2023-03-10T20:32:04.207Z,0.57
2023-03-10T20:34:31.697Z,0.90
2023-03-10T20:36:58.506Z,1.00
2023-03-10T20:39:25.283Z,0.80
2023-03-10T20:41:52.046Z,0.77
2023-03-10T20:44:19.138Z,1.07
2023-03-10T20:46:46.254Z,0.60
2023-03-10T20:49:13.118Z,0.80
2023-03-10T20:51:40.073Z,1.00
2023-03-10T20:54:07.407Z,0.40
2023-03-10T20:56:34.073Z,0.97
2023-03-10T20:59:01.712Z,0.60
2023-03-10T21:01:29.907Z,0.57
2023-03-10T21:03:58.448Z,0.83
2023-03-10T21:06:26.956Z,0.77
2023-03-10T21:08:53.907Z,0.50
2023-03-10T21:11:20.804Z,1.33
2023-03-10T21:13:47.660Z,0.87
2023-03-10T21:16:14.469Z,0.50
2023-03-10T21:18:41.262Z,0.60
2023-03-10T21:21:09.461Z,0.70
2023-03-10T21:23:40.989Z,0.40
2023-03-10T21:26:12.872Z,1.00
2023-03-10T21:28:39.850Z,1.10
2023-03-10T21:31:06.744Z,3.27
2023-03-10T21:33:33.823Z,0.57
2023-03-10T21:36:01.745Z,0.50
2023-03-10T21:38:28.833Z,0.70
2023-03-10T21:40:55.887Z,1.43
2023-03-10T21:43:22.674Z,0.63
2023-03-10T21:45:49.350Z,1.40
2023-03-10T21:48:16.203Z,0.83
2023-03-10T21:50:43.053Z,0.80
2023-03-10T21:53:09.908Z,0.40
2023-03-10T21:55:38.104Z,0.53
2023-03-10T21:58:05.645Z,0.80
2023-03-10T22:00:32.787Z,0.40
2023-03-10T22:02:59.498Z,0.60
2023-03-10T22:05:26.313Z,0.60
2023-03-10T22:07:53.486Z,0.60
2023-03-10T22:10:20.156Z,0.50
2023-03-10T22:12:47.861Z,0.70
2023-03-10T22:15:20.925Z,2.10
2023-03-10T22:17:47.967Z,0.60
2023-03-10T22:20:18.441Z,1.77
2023-03-10T22:22:45.341Z,1.20
2023-03-10T22:25:12.500Z,1.10
2023-03-10T22:27:39.178Z,0.70
2023-03-10T22:30:06.491Z,0.80
2023-03-10T22:32:33.232Z,0.73
2023-03-10T22:35:00.208Z,1.23
2023-03-10T22:37:26.870Z,0.60
2023-03-10T22:39:53.537Z,0.43
2023-03-10T22:42:20.180Z,0.90
2023-03-10T22:44:46.869Z,2.13
2023-03-10T22:47:13.517Z,0.87
2023-03-10T22:49:42.992Z,3.03
2023-03-10T22:52:10.908Z,1.63
2023-03-10T22:54:37.575Z,1.17
2023-03-10T22:57:04.453Z,0.77
2023-03-10T22:59:31.234Z,1.07
2023-03-10T23:01:58.003Z,4.47
2023-03-10T23:04:24.839Z,2.27
2023-03-10T23:06:51.513Z,1.47
2023-03-10T23:09:18.219Z,0.97
2023-03-10T23:11:46.576Z,1.80
2023-03-10T23:14:13.252Z,3.13
2023-03-10T23:16:40.300Z,2.40
2023-03-10T23:19:08.651Z,0.57
2023-03-10T23:21:36.162Z,2.00
2023-03-10T23:24:03.016Z,3.10
2023-03-10T23:26:31.234Z,1.57
2023-03-10T23:28:57.948Z,3.87
2023-03-10T23:31:24.714Z,1.63
2023-03-10T23:33:51.493Z,4.13
2023-03-10T23:36:18.430Z,2.90
2023-03-10T23:38:45.144Z,5.20
2023-03-10T23:41:11.966Z,1.23
2023-03-10T23:43:38.785Z,1.77
2023-03-10T23:46:06.664Z,2.20
2023-03-10T23:48:34.001Z,3.17
2023-03-10T23:51:02.684Z,2.67
2023-03-10T23:53:30.119Z,4.60
2023-03-10T23:55:58.703Z,0.80
2023-03-10T23:58:27.798Z,3.73
